sensor_id;sensor_type;location;lat;lon;timestamp;P1;durP1;ratioP1;P2;durP2;ratioP2
57155;SDS011;43023;59.928;10.682;2022-08-21T00:00:03;0.90;;;0.57;;
57155;SDS011;43023;59.928;10.682;2022-08-21T00:02:29;2.15;;;0.60;;
57155;SDS011;43023;59.928;10.682;2022-08-21T00:04:55;0.45;;;0.45;;
57155;SDS011;43023;59.928;10.682;2022-08-21T00:07:21;1.23;;;0.50;;
57155;SDS011;43023;59.928;10.682;2022-08-21T00:09:47;1.40;;;0.60;;
57155;SDS011;43023;59.928;10.682;2022-08-21T00:12:14;0.70;;;0.50;;
57155;SDS011;43023;59.928;10.682;2022-08-21T00:14:40;0.82;;;0.70;;
57155;SDS011;43023;59.928;10.682;2022-08-21T00:17:06;1.33;;;0.52;;
57155;SDS011;43023;59.928;10.682;2022-08-21T00:19:33;2.08;;;0.77;;
57155;SDS011;43023;59.928;10.682;2022-08-21T00:21:59;0.55;;;0.55;;
57155;SDS011;43023;59.928;10.682;2022-08-21T00:24:25;2.65;;;0.70;;
57155;SDS011;43023;59.928;10.682;2022-08-21T00:26:52;2.20;;;0.70;;
57155;SDS011;43023;59.928;10.682;2022-08-21T00:29:18;0.73;;;0.52;;
57155;SDS011;43023;59.928;10.682;2022-08-21T00:31:44;4.18;;;0.50;;
57155;SDS011;43023;59.928;10.682;2022-08-21T00:34:10;1.02;;;0.50;;
57155;SDS011;43023;59.928;10.682;2022-08-21T00:36:37;2.85;;;0.63;;
57155;SDS011;43023;59.928;10.682;2022-08-21T00:39:04;0.65;;;0.38;;
57155;SDS011;43023;59.928;10.682;2022-08-21T00:41:31;1.25;;;0.65;;
57155;SDS011;43023;59.928;10.682;2022-08-21T00:43:57;1.95;;;0.55;;
57155;SDS011;43023;59.928;10.682;2022-08-21T00:46:23;1.05;;;0.60;;
57155;SDS011;43023;59.928;10.682;2022-08-21T00:48:49;1.33;;;0.60;;
57155;SDS011;43023;59.928;10.682;2022-08-21T00:51:20;2.95;;;0.70;;
57155;SDS011;43023;59.928;10.682;2022-08-21T00:53:49;1.17;;;0.70;;
57155;SDS011;43023;59.928;10.682;2022-08-21T00:56:17;1.65;;;0.60;;
57155;SDS011;43023;59.928;10.682;2022-08-21T00:58:43;2.45;;;0.68;;
57155;SDS011;43023;59.928;10.682;2022-08-21T01:01:10;2.15;;;0.70;;
57155;SDS011;43023;59.928;10.682;2022-08-21T01:03:37;0.55;;;0.55;;
57155;SDS011;43023;59.928;10.682;2022-08-21T01:06:03;0.85;;;0.40;;
57155;SDS011;43023;59.928;10.682;2022-08-21T01:08:30;0.98;;;0.60;;
57155;SDS011;43023;59.928;10.682;2022-08-21T01:10:56;1.85;;;0.70;;
57155;SDS011;43023;59.928;10.682;2022-08-21T01:13:24;0.98;;;0.30;;
57155;SDS011;43023;59.928;10.682;2022-08-21T01:15:52;0.52;;;0.30;;
57155;SDS011;43023;59.928;10.682;2022-08-21T01:18:19;1.10;;;0.50;;
57155;SDS011;43023;59.928;10.682;2022-08-21T01:21:02;0.85;;;0.43;;
57155;SDS011;43023;59.928;10.682;2022-08-21T01:23:29;1.90;;;0.75;;
57155;SDS011;43023;59.928;10.682;2022-08-21T01:25:55;0.73;;;0.30;;
57155;SDS011;43023;59.928;10.682;2022-08-21T01:28:21;1.98;;;0.50;;
57155;SDS011;43023;59.928;10.682;2022-08-21T01:30:48;1.70;;;0.57;;
57155;SDS011;43023;59.928;10.682;2022-08-21T01:33:14;0.88;;;0.50;;
57155;SDS011;43023;59.928;10.682;2022-08-21T01:35:40;1.38;;;0.57;;
57155;SDS011;43023;59.928;10.682;2022-08-21T01:38:06;0.65;;;0.65;;
57155;SDS011;43023;59.928;10.682;2022-08-21T01:40:32;4.78;;;0.68;;
57155;SDS011;43023;59.928;10.682;2022-08-21T01:42:58;1.10;;;0.60;;
57155;SDS011;43023;59.928;10.682;2022-08-21T01:45:24;0.55;;;0.55;;
57155;SDS011;43023;59.928;10.682;2022-08-21T01:47:51;1.08;;;0.40;;
57155;SDS011;43023;59.928;10.682;2022-08-21T01:50:17;0.60;;;0.60;;
57155;SDS011;43023;59.928;10.682;2022-08-21T01:52:44;0.65;;;0.47;;
57155;SDS011;43023;59.928;10.682;2022-08-21T01:55:11;0.38;;;0.38;;
57155;SDS011;43023;59.928;10.682;2022-08-21T01:57:37;1.70;;;0.43;;
57155;SDS011;43023;59.928;10.682;2022-08-21T02:00:08;1.23;;;0.70;;
57155;SDS011;43023;59.928;10.682;2022-08-21T02:02:35;0.63;;;0.40;;
57155;SDS011;43023;59.928;10.682;2022-08-21T02:05:02;2.72;;;0.38;;
57155;SDS011;43023;59.928;10.682;2022-08-21T02:07:35;0.90;;;0.40;;
57155;SDS011;43023;59.928;10.682;2022-08-21T02:10:01;0.73;;;0.50;;
57155;SDS011;43023;59.928;10.682;2022-08-21T02:12:27;1.35;;;0.40;;
57155;SDS011;43023;59.928;10.682;2022-08-21T02:14:53;0.25;;;0.25;;
57155;SDS011;43023;59.928;10.682;2022-08-21T02:17:19;0.47;;;0.40;;
57155;SDS011;43023;59.928;10.682;2022-08-21T02:19:46;0.98;;;0.50;;
57155;SDS011;43023;59.928;10.682;2022-08-21T02:22:12;1.00;;;0.45;;
57155;SDS011;43023;59.928;10.682;2022-08-21T02:24:38;0.88;;;0.68;;
57155;SDS011;43023;59.928;10.682;2022-08-21T02:27:04;2.55;;;0.50;;
57155;SDS011;43023;59.928;10.682;2022-08-21T02:29:30;1.17;;;0.47;;
57155;SDS011;43023;59.928;10.682;2022-08-21T02:31:56;0.63;;;0.50;;
57155;SDS011;43023;59.928;10.682;2022-08-21T02:34:22;0.95;;;0.77;;
57155;SDS011;43023;59.928;10.682;2022-08-21T02:36:48;0.68;;;0.30;;
57155;SDS011;43023;59.928;10.682;2022-08-21T02:39:14;0.55;;;0.45;;
57155;SDS011;43023;59.928;10.682;2022-08-21T02:41:40;0.82;;;0.40;;
57155;SDS011;43023;59.928;10.682;2022-08-21T02:44:06;0.88;;;0.50;;
57155;SDS011;43023;59.928;10.682;2022-08-21T02:46:32;0.25;;;0.25;;
57155;SDS011;43023;59.928;10.682;2022-08-21T02:48:59;1.48;;;0.30;;
57155;SDS011;43023;59.928;10.682;2022-08-21T02:51:25;0.77;;;0.40;;
57155;SDS011;43023;59.928;10.682;2022-08-21T02:53:51;0.93;;;0.40;;
57155;SDS011;43023;59.928;10.682;2022-08-21T02:56:20;0.73;;;0.55;;
57155;SDS011;43023;59.928;10.682;2022-08-21T02:58:49;1.98;;;0.57;;
57155;SDS011;43023;59.928;10.682;2022-08-21T03:01:16;0.98;;;0.45;;
57155;SDS011;43023;59.928;10.682;2022-08-21T03:03:43;2.50;;;0.30;;
57155;SDS011;43023;59.928;10.682;2022-08-21T03:06:10;0.43;;;0.40;;
57155;SDS011;43023;59.928;10.682;2022-08-21T03:08:36;1.23;;;0.45;;
57155;SDS011;43023;59.928;10.682;2022-08-21T03:11:03;1.35;;;0.22;;
57155;SDS011;43023;59.928;10.682;2022-08-21T03:13:29;0.60;;;0.40;;
57155;SDS011;43023;59.928;10.682;2022-08-21T03:15:56;0.63;;;0.60;;
57155;SDS011;43023;59.928;10.682;2022-08-21T03:18:22;1.85;;;0.65;;
57155;SDS011;43023;59.928;10.682;2022-08-21T03:20:48;0.38;;;0.20;;
57155;SDS011;43023;59.928;10.682;2022-08-21T03:23:15;1.75;;;0.30;;
57155;SDS011;43023;59.928;10.682;2022-08-21T03:25:42;0.93;;;0.57;;
57155;SDS011;43023;59.928;10.682;2022-08-21T03:28:09;0.40;;;0.40;;
57155;SDS011;43023;59.928;10.682;2022-08-21T03:30:35;0.75;;;0.50;;
57155;SDS011;43023;59.928;10.682;2022-08-21T03:33:01;0.40;;;0.30;;
57155;SDS011;43023;59.928;10.682;2022-08-21T03:35:28;0.40;;;0.30;;
57155;SDS011;43023;59.928;10.682;2022-08-21T03:37:54;1.23;;;0.50;;
57155;SDS011;43023;59.928;10.682;2022-08-21T03:40:21;0.45;;;0.40;;
57155;SDS011;43023;59.928;10.682;2022-08-21T03:42:47;2.35;;;0.30;;
57155;SDS011;43023;59.928;10.682;2022-08-21T03:45:15;0.43;;;0.38;;
57155;SDS011;43023;59.928;10.682;2022-08-21T03:47:55;0.30;;;0.20;;
57155;SDS011;43023;59.928;10.682;2022-08-21T03:50:23;1.73;;;0.70;;
57155;SDS011;43023;59.928;10.682;2022-08-21T03:52:49;1.48;;;0.40;;
57155;SDS011;43023;59.928;10.682;2022-08-21T03:55:15;0.40;;;0.28;;
57155;SDS011;43023;59.928;10.682;2022-08-21T03:57:41;2.40;;;0.40;;
57155;SDS011;43023;59.928;10.682;2022-08-21T04:00:07;0.50;;;0.40;;
57155;SDS011;43023;59.928;10.682;2022-08-21T04:02:36;1.13;;;0.30;;
57155;SDS011;43023;59.928;10.682;2022-08-21T04:05:02;1.23;;;0.80;;
57155;SDS011;43023;59.928;10.682;2022-08-21T04:07:28;1.23;;;0.50;;
57155;SDS011;43023;59.928;10.682;2022-08-21T04:09:54;0.52;;;0.50;;
57155;SDS011;43023;59.928;10.682;2022-08-21T04:12:21;1.90;;;0.50;;
57155;SDS011;43023;59.928;10.682;2022-08-21T04:14:47;1.75;;;0.30;;
57155;SDS011;43023;59.928;10.682;2022-08-21T04:17:13;0.40;;;0.40;;
57155;SDS011;43023;59.928;10.682;2022-08-21T04:19:39;0.85;;;0.35;;
57155;SDS011;43023;59.928;10.682;2022-08-21T04:22:05;0.93;;;0.52;;
57155;SDS011;43023;59.928;10.682;2022-08-21T04:24:31;1.23;;;0.45;;
57155;SDS011;43023;59.928;10.682;2022-08-21T04:26:57;1.05;;;0.30;;
57155;SDS011;43023;59.928;10.682;2022-08-21T04:29:23;1.55;;;0.52;;
57155;SDS011;43023;59.928;10.682;2022-08-21T04:31:49;0.70;;;0.30;;
57155;SDS011;43023;59.928;10.682;2022-08-21T04:34:17;0.55;;;0.20;;
57155;SDS011;43023;59.928;10.682;2022-08-21T04:36:43;0.90;;;0.43;;
57155;SDS011;43023;59.928;10.682;2022-08-21T04:39:09;0.63;;;0.25;;
57155;SDS011;43023;59.928;10.682;2022-08-21T04:41:35;2.65;;;0.75;;
57155;SDS011;43023;59.928;10.682;2022-08-21T04:44:02;0.65;;;0.52;;
57155;SDS011;43023;59.928;10.682;2022-08-21T04:46:28;0.63;;;0.30;;
57155;SDS011;43023;59.928;10.682;2022-08-21T04:48:54;1.50;;;0.40;;
57155;SDS011;43023;59.928;10.682;2022-08-21T04:51:53;0.55;;;0.40;;
57155;SDS011;43023;59.928;10.682;2022-08-21T04:54:14;0.88;;;0.52;;
57155;SDS011;43023;59.928;10.682;2022-08-21T04:56:42;0.40;;;0.32;;
57155;SDS011;43023;59.928;10.682;2022-08-21T04:59:16;0.55;;;0.40;;
57155;SDS011;43023;59.928;10.682;2022-08-21T05:01:43;0.55;;;0.40;;
57155;SDS011;43023;59.928;10.682;2022-08-21T05:04:10;0.70;;;0.60;;
57155;SDS011;43023;59.928;10.682;2022-08-21T05:06:37;1.00;;;0.47;;
57155;SDS011;43023;59.928;10.682;2022-08-21T05:09:05;0.50;;;0.40;;
57155;SDS011;43023;59.928;10.682;2022-08-21T05:11:34;1.35;;;0.60;;
57155;SDS011;43023;59.928;10.682;2022-08-21T05:14:02;0.98;;;0.32;;
57155;SDS011;43023;59.928;10.682;2022-08-21T05:16:28;0.20;;;0.20;;
57155;SDS011;43023;59.928;10.682;2022-08-21T05:18:54;0.82;;;0.50;;
57155;SDS011;43023;59.928;10.682;2022-08-21T05:21:20;0.95;;;0.32;;
57155;SDS011;43023;59.928;10.682;2022-08-21T05:23:46;0.35;;;0.30;;
57155;SDS011;43023;59.928;10.682;2022-08-21T05:26:12;0.40;;;0.32;;
57155;SDS011;43023;59.928;10.682;2022-08-21T05:28:38;0.60;;;0.20;;
57155;SDS011;43023;59.928;10.682;2022-08-21T05:31:04;0.65;;;0.30;;
57155;SDS011;43023;59.928;10.682;2022-08-21T05:33:30;1.33;;;0.43;;
57155;SDS011;43023;59.928;10.682;2022-08-21T05:35:56;1.98;;;0.22;;
57155;SDS011;43023;59.928;10.682;2022-08-21T05:38:23;0.75;;;0.50;;
57155;SDS011;43023;59.928;10.682;2022-08-21T05:40:50;0.40;;;0.40;;
57155;SDS011;43023;59.928;10.682;2022-08-21T05:43:16;0.25;;;0.25;;
57155;SDS011;43023;59.928;10.682;2022-08-21T05:45:42;0.93;;;0.35;;
57155;SDS011;43023;59.928;10.682;2022-08-21T05:48:16;0.52;;;0.38;;
57155;SDS011;43023;59.928;10.682;2022-08-21T05:53:08;0.43;;;0.38;;
57155;SDS011;43023;59.928;10.682;2022-08-21T05:55:35;0.75;;;0.57;;
57155;SDS011;43023;59.928;10.682;2022-08-21T05:58:02;0.20;;;0.20;;
57155;SDS011;43023;59.928;10.682;2022-08-21T06:00:28;1.65;;;0.40;;
57155;SDS011;43023;59.928;10.682;2022-08-21T06:02:54;0.30;;;0.30;;
57155;SDS011;43023;59.928;10.682;2022-08-21T06:05:20;0.90;;;0.30;;
57155;SDS011;43023;59.928;10.682;2022-08-21T06:07:46;1.10;;;0.40;;
57155;SDS011;43023;59.928;10.682;2022-08-21T06:10:12;0.50;;;0.22;;
57155;SDS011;43023;59.928;10.682;2022-08-21T06:12:38;1.90;;;0.40;;
57155;SDS011;43023;59.928;10.682;2022-08-21T06:15:04;0.40;;;0.40;;
57155;SDS011;43023;59.928;10.682;2022-08-21T06:17:30;1.75;;;0.50;;
57155;SDS011;43023;59.928;10.682;2022-08-21T06:19:56;1.08;;;0.40;;
57155;SDS011;43023;59.928;10.682;2022-08-21T06:22:22;2.17;;;0.50;;
57155;SDS011;43023;59.928;10.682;2022-08-21T06:24:48;1.65;;;0.63;;
57155;SDS011;43023;59.928;10.682;2022-08-21T06:27:14;0.43;;;0.32;;
57155;SDS011;43023;59.928;10.682;2022-08-21T06:29:42;1.25;;;0.30;;
57155;SDS011;43023;59.928;10.682;2022-08-21T06:32:12;0.95;;;0.50;;
57155;SDS011;43023;59.928;10.682;2022-08-21T06:34:39;0.40;;;0.40;;
57155;SDS011;43023;59.928;10.682;2022-08-21T06:37:06;0.73;;;0.35;;
57155;SDS011;43023;59.928;10.682;2022-08-21T06:39:32;0.85;;;0.35;;
57155;SDS011;43023;59.928;10.682;2022-08-21T06:41:59;4.07;;;0.57;;
57155;SDS011;43023;59.928;10.682;2022-08-21T06:44:25;0.90;;;0.40;;
57155;SDS011;43023;59.928;10.682;2022-08-21T06:46:51;3.03;;;0.80;;
57155;SDS011;43023;59.928;10.682;2022-08-21T06:49:17;0.63;;;0.38;;
57155;SDS011;43023;59.928;10.682;2022-08-21T06:51:43;0.43;;;0.38;;
57155;SDS011;43023;59.928;10.682;2022-08-21T06:54:09;1.50;;;0.50;;
57155;SDS011;43023;59.928;10.682;2022-08-21T06:56:35;1.65;;;0.40;;
57155;SDS011;43023;59.928;10.682;2022-08-21T06:59:03;0.32;;;0.32;;
57155;SDS011;43023;59.928;10.682;2022-08-21T07:01:30;1.00;;;0.38;;
57155;SDS011;43023;59.928;10.682;2022-08-21T07:03:56;0.30;;;0.30;;
57155;SDS011;43023;59.928;10.682;2022-08-21T07:06:22;0.40;;;0.40;;
57155;SDS011;43023;59.928;10.682;2022-08-21T07:08:48;0.95;;;0.43;;
57155;SDS011;43023;59.928;10.682;2022-08-21T07:11:18;0.68;;;0.40;;
57155;SDS011;43023;59.928;10.682;2022-08-21T07:13:45;1.48;;;0.85;;
57155;SDS011;43023;59.928;10.682;2022-08-21T07:16:11;0.82;;;0.43;;
57155;SDS011;43023;59.928;10.682;2022-08-21T07:18:37;0.80;;;0.60;;
57155;SDS011;43023;59.928;10.682;2022-08-21T07:21:04;0.90;;;0.60;;
57155;SDS011;43023;59.928;10.682;2022-08-21T07:23:36;0.63;;;0.50;;
57155;SDS011;43023;59.928;10.682;2022-08-21T07:26:02;1.02;;;0.52;;
57155;SDS011;43023;59.928;10.682;2022-08-21T07:28:29;1.88;;;0.60;;
57155;SDS011;43023;59.928;10.682;2022-08-21T07:30:56;3.33;;;0.80;;
57155;SDS011;43023;59.928;10.682;2022-08-21T07:33:23;0.95;;;0.65;;
57155;SDS011;43023;59.928;10.682;2022-08-21T07:35:49;1.58;;;0.57;;
57155;SDS011;43023;59.928;10.682;2022-08-21T07:38:15;3.13;;;0.65;;
57155;SDS011;43023;59.928;10.682;2022-08-21T07:40:43;1.48;;;0.60;;
57155;SDS011;43023;59.928;10.682;2022-08-21T07:43:09;1.85;;;0.52;;
57155;SDS011;43023;59.928;10.682;2022-08-21T07:45:36;4.43;;;0.85;;
57155;SDS011;43023;59.928;10.682;2022-08-21T07:48:03;2.25;;;0.50;;
57155;SDS011;43023;59.928;10.682;2022-08-21T07:50:29;1.52;;;0.63;;
57155;SDS011;43023;59.928;10.682;2022-08-21T07:52:55;1.42;;;0.70;;
57155;SDS011;43023;59.928;10.682;2022-08-21T07:55:21;0.82;;;0.50;;
57155;SDS011;43023;59.928;10.682;2022-08-21T07:57:48;1.60;;;0.50;;
57155;SDS011;43023;59.928;10.682;2022-08-21T08:00:15;1.35;;;0.70;;
57155;SDS011;43023;59.928;10.682;2022-08-21T08:02:44;0.47;;;0.47;;
57155;SDS011;43023;59.928;10.682;2022-08-21T08:05:10;1.73;;;0.80;;
57155;SDS011;43023;59.928;10.682;2022-08-21T08:07:37;1.30;;;0.70;;
57155;SDS011;43023;59.928;10.682;2022-08-21T08:10:03;1.27;;;0.93;;
57155;SDS011;43023;59.928;10.682;2022-08-21T08:12:32;4.43;;;0.77;;
57155;SDS011;43023;59.928;10.682;2022-08-21T08:14:58;4.60;;;0.88;;
57155;SDS011;43023;59.928;10.682;2022-08-21T08:17:25;5.40;;;1.02;;
57155;SDS011;43023;59.928;10.682;2022-08-21T08:19:51;1.60;;;0.75;;
57155;SDS011;43023;59.928;10.682;2022-08-21T08:22:20;4.28;;;1.17;;
57155;SDS011;43023;59.928;10.682;2022-08-21T08:24:48;2.35;;;0.90;;
57155;SDS011;43023;59.928;10.682;2022-08-21T08:27:15;3.10;;;1.08;;
57155;SDS011;43023;59.928;10.682;2022-08-21T08:29:41;2.70;;;0.90;;
57155;SDS011;43023;59.928;10.682;2022-08-21T08:32:07;3.25;;;1.23;;
57155;SDS011;43023;59.928;10.682;2022-08-21T08:34:34;2.17;;;0.80;;
57155;SDS011;43023;59.928;10.682;2022-08-21T08:37:00;2.25;;;1.27;;
57155;SDS011;43023;59.928;10.682;2022-08-21T08:39:28;1.15;;;1.05;;
57155;SDS011;43023;59.928;10.682;2022-08-21T08:41:59;3.85;;;1.08;;
57155;SDS011;43023;59.928;10.682;2022-08-21T08:44:27;3.88;;;1.00;;
57155;SDS011;43023;59.928;10.682;2022-08-21T08:46:53;2.08;;;1.00;;
57155;SDS011;43023;59.928;10.682;2022-08-21T08:49:23;6.63;;;1.40;;
57155;SDS011;43023;59.928;10.682;2022-08-21T08:54:50;2.80;;;1.00;;
57155;SDS011;43023;59.928;10.682;2022-08-21T08:57:18;2.00;;;0.95;;
57155;SDS011;43023;59.928;10.682;2022-08-21T08:59:46;7.88;;;1.27;;
57155;SDS011;43023;59.928;10.682;2022-08-21T09:02:14;10.38;;;1.48;;
57155;SDS011;43023;59.928;10.682;2022-08-21T09:04:40;13.88;;;2.35;;
57155;SDS011;43023;59.928;10.682;2022-08-21T09:07:12;13.13;;;1.60;;
57155;SDS011;43023;59.928;10.682;2022-08-21T09:12:18;11.57;;;2.00;;
57155;SDS011;43023;59.928;10.682;2022-08-21T09:15:01;9.65;;;1.83;;
57155;SDS011;43023;59.928;10.682;2022-08-21T09:17:38;11.68;;;1.92;;
57155;SDS011;43023;59.928;10.682;2022-08-21T09:25:24;7.30;;;1.75;;
57155;SDS011;43023;59.928;10.682;2022-08-21T09:27:51;6.07;;;1.63;;
57155;SDS011;43023;59.928;10.682;2022-08-21T09:30:17;9.10;;;1.45;;
57155;SDS011;43023;59.928;10.682;2022-08-21T09:32:45;9.18;;;2.35;;
57155;SDS011;43023;59.928;10.682;2022-08-21T09:35:12;15.82;;;1.90;;
57155;SDS011;43023;59.928;10.682;2022-08-21T09:37:49;10.60;;;2.10;;
57155;SDS011;43023;59.928;10.682;2022-08-21T09:40:25;3.15;;;1.60;;
57155;SDS011;43023;59.928;10.682;2022-08-21T09:42:56;9.13;;;1.65;;
57155;SDS011;43023;59.928;10.682;2022-08-21T09:45:22;7.05;;;1.10;;
57155;SDS011;43023;59.928;10.682;2022-08-21T09:47:48;4.65;;;1.13;;
57155;SDS011;43023;59.928;10.682;2022-08-21T09:50:20;3.70;;;1.17;;
57155;SDS011;43023;59.928;10.682;2022-08-21T09:52:51;5.28;;;1.23;;
57155;SDS011;43023;59.928;10.682;2022-08-21T09:55:46;4.10;;;0.88;;
57155;SDS011;43023;59.928;10.682;2022-08-21T10:00:56;5.13;;;1.02;;
57155;SDS011;43023;59.928;10.682;2022-08-21T10:03:22;5.93;;;1.20;;
57155;SDS011;43023;59.928;10.682;2022-08-21T10:05:57;2.10;;;0.73;;
57155;SDS011;43023;59.928;10.682;2022-08-21T10:08:25;3.33;;;0.88;;
57155;SDS011;43023;59.928;10.682;2022-08-21T10:10:56;3.00;;;1.63;;
57155;SDS011;43023;59.928;10.682;2022-08-21T10:16:11;4.00;;;1.05;;
57155;SDS011;43023;59.928;10.682;2022-08-21T10:18:45;3.00;;;0.90;;
57155;SDS011;43023;59.928;10.682;2022-08-21T10:21:18;4.25;;;1.20;;
57155;SDS011;43023;59.928;10.682;2022-08-21T10:29:01;2.22;;;0.85;;
57155;SDS011;43023;59.928;10.682;2022-08-21T10:36:46;2.33;;;0.70;;
57155;SDS011;43023;59.928;10.682;2022-08-21T10:47:23;2.45;;;0.93;;
57155;SDS011;43023;59.928;10.682;2022-08-21T10:55:10;7.82;;;1.80;;
57155;SDS011;43023;59.928;10.682;2022-08-21T10:57:40;2.88;;;1.13;;
57155;SDS011;43023;59.928;10.682;2022-08-21T11:00:08;2.35;;;1.15;;
57155;SDS011;43023;59.928;10.682;2022-08-21T11:05:24;2.35;;;0.65;;
57155;SDS011;43023;59.928;10.682;2022-08-21T11:07:53;3.85;;;1.10;;
57155;SDS011;43023;59.928;10.682;2022-08-21T11:10:24;2.05;;;0.88;;
57155;SDS011;43023;59.928;10.682;2022-08-21T11:12:52;1.02;;;0.70;;
57155;SDS011;43023;59.928;10.682;2022-08-21T11:18:09;4.50;;;1.35;;
57155;SDS011;43023;59.928;10.682;2022-08-21T11:20:38;2.83;;;0.63;;
57155;SDS011;43023;59.928;10.682;2022-08-21T11:23:13;1.73;;;0.68;;
57155;SDS011;43023;59.928;10.682;2022-08-21T11:25:41;2.55;;;0.70;;
57155;SDS011;43023;59.928;10.682;2022-08-21T11:28:28;1.40;;;0.70;;
57155;SDS011;43023;59.928;10.682;2022-08-21T11:39:02;3.70;;;0.80;;
57155;SDS011;43023;59.928;10.682;2022-08-21T11:41:31;1.48;;;0.60;;
57155;SDS011;43023;59.928;10.682;2022-08-21T11:44:14;2.92;;;0.77;;
57155;SDS011;43023;59.928;10.682;2022-08-21T11:51:53;1.85;;;0.60;;
57155;SDS011;43023;59.928;10.682;2022-08-21T11:54:26;2.40;;;0.55;;
57155;SDS011;43023;59.928;10.682;2022-08-21T11:57:05;2.60;;;0.70;;
57155;SDS011;43023;59.928;10.682;2022-08-21T12:01:59;2.35;;;0.75;;
57155;SDS011;43023;59.928;10.682;2022-08-21T12:04:29;2.75;;;0.75;;
57155;SDS011;43023;59.928;10.682;2022-08-21T12:07:08;3.47;;;0.50;;
57155;SDS011;43023;59.928;10.682;2022-08-21T12:09:35;1.85;;;0.43;;
57155;SDS011;43023;59.928;10.682;2022-08-21T12:12:12;2.08;;;0.65;;
57155;SDS011;43023;59.928;10.682;2022-08-21T12:17:05;0.50;;;0.45;;
57155;SDS011;43023;59.928;10.682;2022-08-21T12:19:31;3.35;;;0.63;;
57155;SDS011;43023;59.928;10.682;2022-08-21T12:26:53;1.45;;;0.60;;
57155;SDS011;43023;59.928;10.682;2022-08-21T12:31:57;1.13;;;0.68;;
57155;SDS011;43023;59.928;10.682;2022-08-21T12:34:25;1.33;;;0.40;;
57155;SDS011;43023;59.928;10.682;2022-08-21T12:37:06;3.20;;;0.73;;
57155;SDS011;43023;59.928;10.682;2022-08-21T12:39:37;1.30;;;0.55;;
57155;SDS011;43023;59.928;10.682;2022-08-21T12:42:06;1.75;;;0.73;;
57155;SDS011;43023;59.928;10.682;2022-08-21T12:44:41;1.65;;;0.50;;
57155;SDS011;43023;59.928;10.682;2022-08-21T12:47:43;2.05;;;0.70;;
57155;SDS011;43023;59.928;10.682;2022-08-21T12:52:29;2.20;;;0.75;;
57155;SDS011;43023;59.928;10.682;2022-08-21T12:54:56;5.40;;;0.77;;
57155;SDS011;43023;59.928;10.682;2022-08-21T12:57:27;2.03;;;0.75;;
57155;SDS011;43023;59.928;10.682;2022-08-21T12:59:57;2.15;;;0.60;;
57155;SDS011;43023;59.928;10.682;2022-08-21T13:02:25;1.20;;;0.70;;
57155;SDS011;43023;59.928;10.682;2022-08-21T13:04:52;4.47;;;0.60;;
57155;SDS011;43023;59.928;10.682;2022-08-21T13:07:22;3.17;;;0.70;;
57155;SDS011;43023;59.928;10.682;2022-08-21T13:09:52;0.68;;;0.40;;
57155;SDS011;43023;59.928;10.682;2022-08-21T13:12:20;3.55;;;0.70;;
57155;SDS011;43023;59.928;10.682;2022-08-21T13:14:46;2.05;;;0.50;;
57155;SDS011;43023;59.928;10.682;2022-08-21T13:17:17;2.47;;;0.50;;
57155;SDS011;43023;59.928;10.682;2022-08-21T13:20:44;2.33;;;0.50;;
57155;SDS011;43023;59.928;10.682;2022-08-21T13:22:41;1.02;;;0.40;;
57155;SDS011;43023;59.928;10.682;2022-08-21T13:25:14;1.63;;;0.52;;
57155;SDS011;43023;59.928;10.682;2022-08-21T13:27:41;0.50;;;0.50;;
57155;SDS011;43023;59.928;10.682;2022-08-21T13:32:34;0.95;;;0.50;;
57155;SDS011;43023;59.928;10.682;2022-08-21T13:35:12;1.60;;;0.70;;
57155;SDS011;43023;59.928;10.682;2022-08-21T13:37:40;1.48;;;0.73;;
57155;SDS011;43023;59.928;10.682;2022-08-21T13:40:07;1.33;;;0.80;;
57155;SDS011;43023;59.928;10.682;2022-08-21T13:42:35;1.02;;;0.68;;
57155;SDS011;43023;59.928;10.682;2022-08-21T13:45:01;2.80;;;0.52;;
57155;SDS011;43023;59.928;10.682;2022-08-21T13:47:27;0.43;;;0.43;;
57155;SDS011;43023;59.928;10.682;2022-08-21T13:49:53;1.77;;;0.65;;
57155;SDS011;43023;59.928;10.682;2022-08-21T13:52:21;2.90;;;0.80;;
57155;SDS011;43023;59.928;10.682;2022-08-21T13:54:57;2.05;;;1.00;;
57155;SDS011;43023;59.928;10.682;2022-08-21T13:57:25;1.00;;;0.55;;
57155;SDS011;43023;59.928;10.682;2022-08-21T13:59:51;0.68;;;0.50;;
57155;SDS011;43023;59.928;10.682;2022-08-21T14:02:18;1.70;;;0.55;;
57155;SDS011;43023;59.928;10.682;2022-08-21T14:04:52;1.80;;;0.43;;
57155;SDS011;43023;59.928;10.682;2022-08-21T14:07:20;1.52;;;0.75;;
57155;SDS011;43023;59.928;10.682;2022-08-21T14:09:50;1.98;;;0.40;;
57155;SDS011;43023;59.928;10.682;2022-08-21T14:12:18;0.30;;;0.30;;
57155;SDS011;43023;59.928;10.682;2022-08-21T14:14:45;1.23;;;0.50;;
57155;SDS011;43023;59.928;10.682;2022-08-21T14:17:13;0.88;;;0.50;;
57155;SDS011;43023;59.928;10.682;2022-08-21T14:19:41;1.52;;;0.50;;
57155;SDS011;43023;59.928;10.682;2022-08-21T14:24:49;1.10;;;0.60;;
57155;SDS011;43023;59.928;10.682;2022-08-21T14:27:16;3.50;;;0.47;;
57155;SDS011;43023;59.928;10.682;2022-08-21T14:29:43;0.80;;;0.75;;
57155;SDS011;43023;59.928;10.682;2022-08-21T14:32:14;3.72;;;0.75;;
57155;SDS011;43023;59.928;10.682;2022-08-21T14:34:40;1.00;;;0.47;;
57155;SDS011;43023;59.928;10.682;2022-08-21T14:37:06;3.63;;;0.52;;
57155;SDS011;43023;59.928;10.682;2022-08-21T14:39:32;1.48;;;0.50;;
57155;SDS011;43023;59.928;10.682;2022-08-21T14:41:58;1.05;;;0.50;;
57155;SDS011;43023;59.928;10.682;2022-08-21T14:44:25;1.70;;;0.40;;
57155;SDS011;43023;59.928;10.682;2022-08-21T14:46:52;2.80;;;0.75;;
57155;SDS011;43023;59.928;10.682;2022-08-21T14:49:18;1.02;;;0.50;;
57155;SDS011;43023;59.928;10.682;2022-08-21T14:51:44;1.63;;;0.52;;
57155;SDS011;43023;59.928;10.682;2022-08-21T14:54:10;3.03;;;0.57;;
57155;SDS011;43023;59.928;10.682;2022-08-21T14:56:36;1.35;;;0.52;;
57155;SDS011;43023;59.928;10.682;2022-08-21T14:59:06;1.23;;;0.80;;
57155;SDS011;43023;59.928;10.682;2022-08-21T15:01:34;0.57;;;0.43;;
57155;SDS011;43023;59.928;10.682;2022-08-21T15:04:00;0.63;;;0.50;;
57155;SDS011;43023;59.928;10.682;2022-08-21T15:06:26;1.23;;;0.50;;
57155;SDS011;43023;59.928;10.682;2022-08-21T15:08:52;0.75;;;0.40;;
57155;SDS011;43023;59.928;10.682;2022-08-21T15:11:19;1.10;;;0.70;;
57155;SDS011;43023;59.928;10.682;2022-08-21T15:13:46;2.92;;;0.70;;
57155;SDS011;43023;59.928;10.682;2022-08-21T15:16:13;0.98;;;0.60;;
57155;SDS011;43023;59.928;10.682;2022-08-21T15:18:39;1.35;;;0.50;;
57155;SDS011;43023;59.928;10.682;2022-08-21T15:21:07;2.28;;;0.50;;
57155;SDS011;43023;59.928;10.682;2022-08-21T15:23:33;1.25;;;0.77;;
57155;SDS011;43023;59.928;10.682;2022-08-21T15:25:59;1.48;;;0.68;;
57155;SDS011;43023;59.928;10.682;2022-08-21T15:28:26;2.90;;;0.57;;
57155;SDS011;43023;59.928;10.682;2022-08-21T15:30:52;0.93;;;0.40;;
57155;SDS011;43023;59.928;10.682;2022-08-21T15:33:18;1.23;;;0.30;;
57155;SDS011;43023;59.928;10.682;2022-08-21T15:35:44;0.30;;;0.30;;
57155;SDS011;43023;59.928;10.682;2022-08-21T15:38:11;0.82;;;0.52;;
57155;SDS011;43023;59.928;10.682;2022-08-21T15:40:37;1.35;;;0.65;;
57155;SDS011;43023;59.928;10.682;2022-08-21T15:43:04;1.83;;;0.35;;
57155;SDS011;43023;59.928;10.682;2022-08-21T15:45:30;0.82;;;0.28;;
57155;SDS011;43023;59.928;10.682;2022-08-21T15:47:56;2.63;;;0.43;;
57155;SDS011;43023;59.928;10.682;2022-08-21T15:50:23;2.25;;;0.68;;
57155;SDS011;43023;59.928;10.682;2022-08-21T15:52:49;0.90;;;0.30;;
57155;SDS011;43023;59.928;10.682;2022-08-21T15:55:15;4.78;;;0.50;;
57155;SDS011;43023;59.928;10.682;2022-08-21T15:57:42;0.52;;;0.10;;